sensor_id;sensor_type;location;lat;lon;timestamp;P1;durP1;ratioP1;P2;durP2;ratioP2
4311;SDS011;2169;49.086;9.284;2022-10-31T00:02:11;6.30;;;3.00;;
4311;SDS011;2169;49.086;9.284;2022-10-31T00:04:38;12.33;;;4.17;;
4311;SDS011;2169;49.086;9.284;2022-10-31T00:07:06;4.33;;;3.93;;
4311;SDS011;2169;49.086;9.284;2022-10-31T00:09:33;9.43;;;3.47;;
4311;SDS011;2169;49.086;9.284;2022-10-31T00:12:00;12.23;;;3.00;;
4311;SDS011;2169;49.086;9.284;2022-10-31T00:14:27;7.40;;;3.20;;
4311;SDS011;2169;49.086;9.284;2022-10-31T00:16:55;3.60;;;3.30;;
4311;SDS011;2169;49.086;9.284;2022-10-31T00:19:22;10.70;;;3.27;;
4311;SDS011;2169;49.086;9.284;2022-10-31T00:21:51;5.13;;;4.70;;
4311;SDS011;2169;49.086;9.284;2022-10-31T00:24:17;6.03;;;3.80;;
4311;SDS011;2169;49.086;9.284;2022-10-31T00:26:44;6.57;;;3.70;;
4311;SDS011;2169;49.086;9.284;2022-10-31T00:29:11;6.53;;;4.60;;
4311;SDS011;2169;49.086;9.284;2022-10-31T00:31:38;7.30;;;3.30;;
4311;SDS011;2169;49.086;9.284;2022-10-31T00:34:07;8.53;;;4.60;;
4311;SDS011;2169;49.086;9.284;2022-10-31T00:36:33;3.63;;;2.97;;
4311;SDS011;2169;49.086;9.284;2022-10-31T00:39:00;8.60;;;3.83;;
4311;SDS011;2169;49.086;9.284;2022-10-31T00:41:27;7.67;;;2.53;;
4311;SDS011;2169;49.086;9.284;2022-10-31T00:43:54;7.73;;;3.67;;
4311;SDS011;2169;49.086;9.284;2022-10-31T00:46:20;5.90;;;2.20;;
4311;SDS011;2169;49.086;9.284;2022-10-31T00:48:47;6.50;;;3.50;;
4311;SDS011;2169;49.086;9.284;2022-10-31T00:51:15;16.27;;;4.60;;
4311;SDS011;2169;49.086;9.284;2022-10-31T00:53:42;5.80;;;4.30;;
4311;SDS011;2169;49.086;9.284;2022-10-31T00:56:09;3.83;;;2.40;;
4311;SDS011;2169;49.086;9.284;2022-10-31T00:58:36;7.68;;;2.80;;
4311;SDS011;2169;49.086;9.284;2022-10-31T01:01:03;9.97;;;5.80;;
4311;SDS011;2169;49.086;9.284;2022-10-31T01:03:30;2.90;;;2.57;;
4311;SDS011;2169;49.086;9.284;2022-10-31T01:05:59;3.63;;;3.33;;
4311;SDS011;2169;49.086;9.284;2022-10-31T01:08:29;4.50;;;2.73;;
4311;SDS011;2169;49.086;9.284;2022-10-31T01:10:59;4.10;;;2.60;;
4311;SDS011;2169;49.086;9.284;2022-10-31T01:13:27;2.93;;;2.43;;
4311;SDS011;2169;49.086;9.284;2022-10-31T01:15:54;6.13;;;3.30;;
4311;SDS011;2169;49.086;9.284;2022-10-31T01:18:22;17.87;;;4.70;;
4311;SDS011;2169;49.086;9.284;2022-10-31T01:20:56;12.53;;;3.70;;
4311;SDS011;2169;49.086;9.284;2022-10-31T01:23:24;4.17;;;3.13;;
4311;SDS011;2169;49.086;9.284;2022-10-31T01:25:59;9.30;;;2.70;;
4311;SDS011;2169;49.086;9.284;2022-10-31T01:28:27;3.23;;;2.93;;
4311;SDS011;2169;49.086;9.284;2022-10-31T01:30:54;9.60;;;3.07;;
4311;SDS011;2169;49.086;9.284;2022-10-31T01:33:21;8.87;;;4.57;;
4311;SDS011;2169;49.086;9.284;2022-10-31T01:35:47;4.03;;;2.90;;
4311;SDS011;2169;49.086;9.284;2022-10-31T01:38:14;18.63;;;3.20;;
4311;SDS011;2169;49.086;9.284;2022-10-31T01:40:41;11.40;;;3.80;;
4311;SDS011;2169;49.086;9.284;2022-10-31T01:43:10;8.87;;;3.60;;
4311;SDS011;2169;49.086;9.284;2022-10-31T01:45:38;14.07;;;3.50;;
4311;SDS011;2169;49.086;9.284;2022-10-31T01:48:06;16.47;;;4.50;;
4311;SDS011;2169;49.086;9.284;2022-10-31T01:50:39;17.10;;;3.53;;
4311;SDS011;2169;49.086;9.284;2022-10-31T01:53:08;3.90;;;3.47;;
4311;SDS011;2169;49.086;9.284;2022-10-31T01:55:38;5.43;;;2.90;;
4311;SDS011;2169;49.086;9.284;2022-10-31T01:58:08;3.20;;;3.00;;
4311;SDS011;2169;49.086;9.284;2022-10-31T02:00:39;4.00;;;2.97;;
4311;SDS011;2169;49.086;9.284;2022-10-31T02:03:08;7.60;;;3.10;;
4311;SDS011;2169;49.086;9.284;2022-10-31T02:05:35;7.13;;;3.60;;
4311;SDS011;2169;49.086;9.284;2022-10-31T02:08:03;6.63;;;2.63;;
4311;SDS011;2169;49.086;9.284;2022-10-31T02:10:34;11.70;;;4.33;;
4311;SDS011;2169;49.086;9.284;2022-10-31T02:13:03;11.90;;;4.70;;
4311;SDS011;2169;49.086;9.284;2022-10-31T02:15:32;6.80;;;3.47;;
4311;SDS011;2169;49.086;9.284;2022-10-31T02:18:00;7.97;;;3.93;;
4311;SDS011;2169;49.086;9.284;2022-10-31T02:20:29;4.77;;;4.00;;
4311;SDS011;2169;49.086;9.284;2022-10-31T02:26:07;13.93;;;4.37;;
4311;SDS011;2169;49.086;9.284;2022-10-31T02:31:46;4.50;;;4.17;;
4311;SDS011;2169;49.086;9.284;2022-10-31T02:34:20;7.30;;;3.33;;
4311;SDS011;2169;49.086;9.284;2022-10-31T02:36:52;4.00;;;3.07;;
4311;SDS011;2169;49.086;9.284;2022-10-31T02:39:23;4.83;;;2.97;;
4311;SDS011;2169;49.086;9.284;2022-10-31T02:41:55;5.00;;;4.20;;
4311;SDS011;2169;49.086;9.284;2022-10-31T02:44:32;10.10;;;3.03;;
4311;SDS011;2169;49.086;9.284;2022-10-31T02:47:05;9.03;;;3.30;;
4311;SDS011;2169;49.086;9.284;2022-10-31T02:49:35;3.50;;;2.60;;
4311;SDS011;2169;49.086;9.284;2022-10-31T02:52:18;6.90;;;3.27;;
4311;SDS011;2169;49.086;9.284;2022-10-31T02:54:45;5.60;;;3.47;;
4311;SDS011;2169;49.086;9.284;2022-10-31T02:57:13;6.23;;;3.73;;
4311;SDS011;2169;49.086;9.284;2022-10-31T02:59:42;4.07;;;2.80;;
4311;SDS011;2169;49.086;9.284;2022-10-31T03:02:18;4.70;;;3.03;;
4311;SDS011;2169;49.086;9.284;2022-10-31T03:07:56;5.43;;;2.57;;
4311;SDS011;2169;49.086;9.284;2022-10-31T03:10:33;6.00;;;4.10;;
4311;SDS011;2169;49.086;9.284;2022-10-31T03:13:06;6.50;;;3.20;;
4311;SDS011;2169;49.086;9.284;2022-10-31T03:15:37;7.37;;;2.93;;
4311;SDS011;2169;49.086;9.284;2022-10-31T03:18:08;5.20;;;4.13;;
4311;SDS011;2169;49.086;9.284;2022-10-31T03:20:39;12.37;;;3.83;;
4311;SDS011;2169;49.086;9.284;2022-10-31T03:23:08;2.30;;;2.20;;
4311;SDS011;2169;49.086;9.284;2022-10-31T03:25:39;4.23;;;2.60;;
4311;SDS011;2169;49.086;9.284;2022-10-31T03:28:07;5.93;;;3.50;;
4311;SDS011;2169;49.086;9.284;2022-10-31T03:30:38;9.00;;;3.40;;
4311;SDS011;2169;49.086;9.284;2022-10-31T03:33:09;2.87;;;2.73;;
4311;SDS011;2169;49.086;9.284;2022-10-31T03:35:39;7.33;;;3.70;;
4311;SDS011;2169;49.086;9.284;2022-10-31T03:38:08;9.93;;;3.60;;
4311;SDS011;2169;49.086;9.284;2022-10-31T03:40:36;3.47;;;3.03;;
4311;SDS011;2169;49.086;9.284;2022-10-31T03:43:07;3.00;;;2.43;;
4311;SDS011;2169;49.086;9.284;2022-10-31T03:45:40;8.73;;;4.40;;
4311;SDS011;2169;49.086;9.284;2022-10-31T03:48:11;10.33;;;3.57;;
4311;SDS011;2169;49.086;9.284;2022-10-31T03:50:40;8.83;;;3.80;;
4311;SDS011;2169;49.086;9.284;2022-10-31T03:53:16;4.60;;;2.53;;
4311;SDS011;2169;49.086;9.284;2022-10-31T03:55:48;20.13;;;2.77;;
4311;SDS011;2169;49.086;9.284;2022-10-31T03:58:18;11.07;;;2.53;;
4311;SDS011;2169;49.086;9.284;2022-10-31T04:00:50;21.53;;;3.80;;
4311;SDS011;2169;49.086;9.284;2022-10-31T04:03:22;7.30;;;2.63;;
4311;SDS011;2169;49.086;9.284;2022-10-31T04:05:52;6.37;;;3.40;;
4311;SDS011;2169;49.086;9.284;2022-10-31T04:08:23;3.30;;;3.10;;
4311;SDS011;2169;49.086;9.284;2022-10-31T04:10:53;8.13;;;4.33;;
4311;SDS011;2169;49.086;9.284;2022-10-31T04:13:24;3.63;;;3.37;;
4311;SDS011;2169;49.086;9.284;2022-10-31T04:15:54;3.50;;;3.27;;
4311;SDS011;2169;49.086;9.284;2022-10-31T04:18:23;3.93;;;3.00;;
4311;SDS011;2169;49.086;9.284;2022-10-31T04:20:58;8.23;;;4.30;;
4311;SDS011;2169;49.086;9.284;2022-10-31T04:23:27;9.17;;;4.70;;
4311;SDS011;2169;49.086;9.284;2022-10-31T04:25:54;11.97;;;3.60;;
4311;SDS011;2169;49.086;9.284;2022-10-31T04:28:21;3.67;;;3.37;;
4311;SDS011;2169;49.086;9.284;2022-10-31T04:30:48;8.17;;;3.40;;
4311;SDS011;2169;49.086;9.284;2022-10-31T04:33:15;14.50;;;3.80;;
4311;SDS011;2169;49.086;9.284;2022-10-31T04:35:43;6.23;;;2.83;;
4311;SDS011;2169;49.086;9.284;2022-10-31T04:38:10;8.10;;;4.53;;
4311;SDS011;2169;49.086;9.284;2022-10-31T04:40:37;5.47;;;3.03;;
4311;SDS011;2169;49.086;9.284;2022-10-31T04:43:04;3.67;;;3.47;;
4311;SDS011;2169;49.086;9.284;2022-10-31T04:45:31;7.73;;;4.50;;
4311;SDS011;2169;49.086;9.284;2022-10-31T04:47:57;5.77;;;4.17;;
4311;SDS011;2169;49.086;9.284;2022-10-31T04:50:24;9.50;;;4.00;;
4311;SDS011;2169;49.086;9.284;2022-10-31T04:52:52;5.67;;;3.63;;
4311;SDS011;2169;49.086;9.284;2022-10-31T04:55:19;2.70;;;2.50;;
4311;SDS011;2169;49.086;9.284;2022-10-31T04:57:47;4.33;;;3.40;;
4311;SDS011;2169;49.086;9.284;2022-10-31T05:00:16;5.90;;;3.13;;
4311;SDS011;2169;49.086;9.284;2022-10-31T05:02:45;5.23;;;4.67;;
4311;SDS011;2169;49.086;9.284;2022-10-31T05:05:12;2.97;;;2.20;;
4311;SDS011;2169;49.086;9.284;2022-10-31T05:07:40;3.90;;;3.60;;
4311;SDS011;2169;49.086;9.284;2022-10-31T05:10:09;5.97;;;3.73;;
4311;SDS011;2169;49.086;9.284;2022-10-31T05:12:37;4.90;;;3.83;;
4311;SDS011;2169;49.086;9.284;2022-10-31T05:15:11;3.97;;;2.80;;
4311;SDS011;2169;49.086;9.284;2022-10-31T05:17:38;3.80;;;2.73;;
4311;SDS011;2169;49.086;9.284;2022-10-31T05:20:05;8.57;;;2.63;;
4311;SDS011;2169;49.086;9.284;2022-10-31T05:22:32;5.40;;;3.70;;
4311;SDS011;2169;49.086;9.284;2022-10-31T05:24:58;4.27;;;3.80;;
4311;SDS011;2169;49.086;9.284;2022-10-31T05:27:27;10.13;;;3.80;;
4311;SDS011;2169;49.086;9.284;2022-10-31T05:29:53;4.73;;;4.27;;
4311;SDS011;2169;49.086;9.284;2022-10-31T05:32:20;5.33;;;4.30;;
4311;SDS011;2169;49.086;9.284;2022-10-31T05:34:47;4.97;;;3.13;;
4311;SDS011;2169;49.086;9.284;2022-10-31T05:37:14;15.93;;;4.30;;
4311;SDS011;2169;49.086;9.284;2022-10-31T05:39:41;6.10;;;3.30;;
4311;SDS011;2169;49.086;9.284;2022-10-31T05:42:07;5.73;;;3.57;;
4311;SDS011;2169;49.086;9.284;2022-10-31T05:44:36;8.43;;;3.33;;
4311;SDS011;2169;49.086;9.284;2022-10-31T05:47:02;6.07;;;3.30;;
4311;SDS011;2169;49.086;9.284;2022-10-31T05:49:29;6.10;;;3.23;;
4311;SDS011;2169;49.086;9.284;2022-10-31T05:51:56;5.83;;;4.00;;
4311;SDS011;2169;49.086;9.284;2022-10-31T05:54:23;9.13;;;3.23;;
4311;SDS011;2169;49.086;9.284;2022-10-31T05:56:50;3.80;;;3.27;;
4311;SDS011;2169;49.086;9.284;2022-10-31T05:59:16;5.43;;;3.80;;
4311;SDS011;2169;49.086;9.284;2022-10-31T06:01:44;9.83;;;3.90;;
4311;SDS011;2169;49.086;9.284;2022-10-31T06:04:11;2.87;;;2.70;;
4311;SDS011;2169;49.086;9.284;2022-10-31T06:06:38;11.63;;;2.60;;
4311;SDS011;2169;49.086;9.284;2022-10-31T06:09:05;4.63;;;2.93;;
4311;SDS011;2169;49.086;9.284;2022-10-31T06:11:31;6.00;;;3.40;;
4311;SDS011;2169;49.086;9.284;2022-10-31T06:13:58;8.13;;;3.23;;
4311;SDS011;2169;49.086;9.284;2022-10-31T06:16:25;3.70;;;3.40;;
4311;SDS011;2169;49.086;9.284;2022-10-31T06:18:53;4.23;;;3.70;;
4311;SDS011;2169;49.086;9.284;2022-10-31T06:21:20;4.93;;;3.67;;
4311;SDS011;2169;49.086;9.284;2022-10-31T06:23:47;5.03;;;3.00;;
4311;SDS011;2169;49.086;9.284;2022-10-31T06:26:14;3.70;;;3.43;;
4311;SDS011;2169;49.086;9.284;2022-10-31T06:28:41;5.43;;;4.70;;
4311;SDS011;2169;49.086;9.284;2022-10-31T06:31:07;7.27;;;4.77;;
4311;SDS011;2169;49.086;9.284;2022-10-31T06:33:34;12.73;;;5.27;;
4311;SDS011;2169;49.086;9.284;2022-10-31T06:36:02;6.90;;;4.63;;
4311;SDS011;2169;49.086;9.284;2022-10-31T06:38:30;4.73;;;4.20;;
4311;SDS011;2169;49.086;9.284;2022-10-31T06:40:56;8.67;;;5.30;;
4311;SDS011;2169;49.086;9.284;2022-10-31T06:43:23;10.03;;;3.77;;
4311;SDS011;2169;49.086;9.284;2022-10-31T06:45:50;10.53;;;4.20;;
4311;SDS011;2169;49.086;9.284;2022-10-31T06:48:17;5.97;;;5.30;;
4311;SDS011;2169;49.086;9.284;2022-10-31T06:50:44;4.27;;;3.83;;
4311;SDS011;2169;49.086;9.284;2022-10-31T06:53:12;12.53;;;5.07;;
4311;SDS011;2169;49.086;9.284;2022-10-31T06:55:39;12.33;;;5.77;;
4311;SDS011;2169;49.086;9.284;2022-10-31T06:58:08;9.03;;;5.30;;
4311;SDS011;2169;49.086;9.284;2022-10-31T07:00:35;12.07;;;5.10;;
4311;SDS011;2169;49.086;9.284;2022-10-31T07:03:03;7.63;;;5.80;;
4311;SDS011;2169;49.086;9.284;2022-10-31T07:05:31;11.90;;;4.40;;
4311;SDS011;2169;49.086;9.284;2022-10-31T07:07:59;7.23;;;6.63;;
4311;SDS011;2169;49.086;9.284;2022-10-31T07:10:29;8.07;;;3.90;;
4311;SDS011;2169;49.086;9.284;2022-10-31T07:12:57;16.20;;;7.07;;
4311;SDS011;2169;49.086;9.284;2022-10-31T07:15:25;15.50;;;5.90;;
4311;SDS011;2169;49.086;9.284;2022-10-31T07:17:53;6.23;;;5.63;;
4311;SDS011;2169;49.086;9.284;2022-10-31T07:20:20;22.47;;;5.30;;
4311;SDS011;2169;49.086;9.284;2022-10-31T07:22:47;7.57;;;5.57;;
4311;SDS011;2169;49.086;9.284;2022-10-31T07:25:14;8.60;;;5.03;;
4311;SDS011;2169;49.086;9.284;2022-10-31T07:27:42;5.83;;;5.33;;
4311;SDS011;2169;49.086;9.284;2022-10-31T07:30:12;12.33;;;5.43;;
4311;SDS011;2169;49.086;9.284;2022-10-31T07:32:42;6.20;;;4.60;;
4311;SDS011;2169;49.086;9.284;2022-10-31T07:35:10;10.53;;;5.53;;
4311;SDS011;2169;49.086;9.284;2022-10-31T07:37:39;7.40;;;4.57;;
4311;SDS011;2169;49.086;9.284;2022-10-31T07:40:07;7.13;;;5.70;;
4311;SDS011;2169;49.086;9.284;2022-10-31T07:42:38;9.40;;;5.93;;
4311;SDS011;2169;49.086;9.284;2022-10-31T07:45:08;5.53;;;5.03;;
4311;SDS011;2169;49.086;9.284;2022-10-31T07:47:39;7.10;;;4.40;;
4311;SDS011;2169;49.086;9.284;2022-10-31T07:50:06;8.00;;;5.67;;
4311;SDS011;2169;49.086;9.284;2022-10-31T07:52:33;9.80;;;6.63;;
4311;SDS011;2169;49.086;9.284;2022-10-31T07:55:00;10.70;;;5.00;;
4311;SDS011;2169;49.086;9.284;2022-10-31T07:57:27;16.20;;;6.60;;
4311;SDS011;2169;49.086;9.284;2022-10-31T07:59:54;11.63;;;6.00;;
4311;SDS011;2169;49.086;9.284;2022-10-31T08:02:22;11.90;;;4.40;;
4311;SDS011;2169;49.086;9.284;2022-10-31T08:04:49;7.23;;;5.93;;
4311;SDS011;2169;49.086;9.284;2022-10-31T08:07:16;5.43;;;5.03;;
4311;SDS011;2169;49.086;9.284;2022-10-31T08:09:43;8.73;;;5.10;;
4311;SDS011;2169;49.086;9.284;2022-10-31T08:12:10;9.00;;;5.80;;
4311;SDS011;2169;49.086;9.284;2022-10-31T08:14:37;5.97;;;5.37;;
4311;SDS011;2169;49.086;9.284;2022-10-31T08:17:03;5.50;;;4.50;;
4311;SDS011;2169;49.086;9.284;2022-10-31T08:19:35;5.13;;;4.50;;
4311;SDS011;2169;49.086;9.284;2022-10-31T08:22:01;8.80;;;6.70;;
4311;SDS011;2169;49.086;9.284;2022-10-31T08:24:29;7.73;;;5.93;;
4311;SDS011;2169;49.086;9.284;2022-10-31T08:26:55;5.27;;;4.70;;
4311;SDS011;2169;49.086;9.284;2022-10-31T08:29:22;9.00;;;5.80;;
4311;SDS011;2169;49.086;9.284;2022-10-31T08:31:49;8.37;;;5.73;;
4311;SDS011;2169;49.086;9.284;2022-10-31T08:34:16;6.47;;;4.43;;
4311;SDS011;2169;49.086;9.284;2022-10-31T08:36:44;6.23;;;5.50;;
4311;SDS011;2169;49.086;9.284;2022-10-31T08:39:11;8.03;;;5.63;;
4311;SDS011;2169;49.086;9.284;2022-10-31T08:41:38;6.37;;;5.80;;
4311;SDS011;2169;49.086;9.284;2022-10-31T08:44:04;7.03;;;6.43;;
4311;SDS011;2169;49.086;9.284;2022-10-31T08:46:31;8.73;;;6.40;;
4311;SDS011;2169;49.086;9.284;2022-10-31T08:48:58;12.27;;;7.80;;
4311;SDS011;2169;49.086;9.284;2022-10-31T08:51:25;9.37;;;6.17;;
4311;SDS011;2169;49.086;9.284;2022-10-31T08:53:53;11.20;;;6.00;;
4311;SDS011;2169;49.086;9.284;2022-10-31T08:56:19;6.17;;;5.20;;
4311;SDS011;2169;49.086;9.284;2022-10-31T08:58:47;7.50;;;6.77;;
4311;SDS011;2169;49.086;9.284;2022-10-31T09:01:14;10.20;;;6.33;;
4311;SDS011;2169;49.086;9.284;2022-10-31T09:03:40;8.83;;;6.63;;
4311;SDS011;2169;49.086;9.284;2022-10-31T09:06:07;16.00;;;5.80;;
4311;SDS011;2169;49.086;9.284;2022-10-31T09:08:34;8.17;;;5.97;;
4311;SDS011;2169;49.086;9.284;2022-10-31T09:11:03;9.47;;;7.03;;
4311;SDS011;2169;49.086;9.284;2022-10-31T09:13:31;11.70;;;6.40;;
4311;SDS011;2169;49.086;9.284;2022-10-31T09:15:58;9.97;;;5.90;;
4311;SDS011;2169;49.086;9.284;2022-10-31T09:18:25;6.83;;;6.17;;
4311;SDS011;2169;49.086;9.284;2022-10-31T09:20:53;7.83;;;5.67;;
4311;SDS011;2169;49.086;9.284;2022-10-31T09:23:20;14.10;;;8.20;;
4311;SDS011;2169;49.086;9.284;2022-10-31T09:25:49;15.23;;;6.97;;
4311;SDS011;2169;49.086;9.284;2022-10-31T09:28:19;19.77;;;7.73;;
4311;SDS011;2169;49.086;9.284;2022-10-31T09:30:48;10.83;;;6.07;;
4311;SDS011;2169;49.086;9.284;2022-10-31T09:33:17;6.70;;;5.60;;
4311;SDS011;2169;49.086;9.284;2022-10-31T09:35:44;8.43;;;6.40;;
4311;SDS011;2169;49.086;9.284;2022-10-31T09:38:12;10.70;;;6.50;;
4311;SDS011;2169;49.086;9.284;2022-10-31T09:40:41;5.67;;;5.17;;
4311;SDS011;2169;49.086;9.284;2022-10-31T09:43:13;7.53;;;5.87;;
4311;SDS011;2169;49.086;9.284;2022-10-31T09:45:46;6.60;;;6.00;;
4311;SDS011;2169;49.086;9.284;2022-10-31T09:48:24;7.27;;;6.23;;
4311;SDS011;2169;49.086;9.284;2022-10-31T09:51:03;9.30;;;6.77;;
4311;SDS011;2169;49.086;9.284;2022-10-31T09:53:34;5.73;;;5.17;;
4311;SDS011;2169;49.086;9.284;2022-10-31T09:56:05;11.03;;;7.40;;
4311;SDS011;2169;49.086;9.284;2022-10-31T09:58:35;10.37;;;6.93;;
4311;SDS011;2169;49.086;9.284;2022-10-31T10:01:11;21.93;;;8.23;;
4311;SDS011;2169;49.086;9.284;2022-10-31T10:03:53;10.53;;;5.50;;
4311;SDS011;2169;49.086;9.284;2022-10-31T10:06:25;16.23;;;9.70;;
4311;SDS011;2169;49.086;9.284;2022-10-31T10:08:55;20.20;;;7.80;;
4311;SDS011;2169;49.086;9.284;2022-10-31T10:11:27;17.97;;;6.20;;
4311;SDS011;2169;49.086;9.284;2022-10-31T10:14:10;15.80;;;6.90;;
4311;SDS011;2169;49.086;9.284;2022-10-31T10:16:55;15.53;;;6.13;;
4311;SDS011;2169;49.086;9.284;2022-10-31T10:19:34;10.00;;;6.37;;
4311;SDS011;2169;49.086;9.284;2022-10-31T10:22:38;19.80;;;7.60;;
4311;SDS011;2169;49.086;9.284;2022-10-31T10:25:14;11.17;;;6.90;;
4311;SDS011;2169;49.086;9.284;2022-10-31T10:27:47;10.33;;;5.93;;
4311;SDS011;2169;49.086;9.284;2022-10-31T10:30:21;8.07;;;6.47;;
4311;SDS011;2169;49.086;9.284;2022-10-31T10:32:55;9.53;;;6.83;;
4311;SDS011;2169;49.086;9.284;2022-10-31T10:35:24;9.33;;;5.70;;
4311;SDS011;2169;49.086;9.284;2022-10-31T10:37:56;15.47;;;7.27;;
4311;SDS011;2169;49.086;9.284;2022-10-31T10:40:27;13.23;;;6.53;;
4311;SDS011;2169;49.086;9.284;2022-10-31T10:42:56;6.40;;;5.80;;
4311;SDS011;2169;49.086;9.284;2022-10-31T10:45:56;20.90;;;6.60;;
4311;SDS011;2169;49.086;9.284;2022-10-31T10:48:51;11.27;;;6.73;;
4311;SDS011;2169;49.086;9.284;2022-10-31T10:51:26;6.40;;;5.87;;
4311;SDS011;2169;49.086;9.284;2022-10-31T10:54:02;9.63;;;5.70;;
4311;SDS011;2169;49.086;9.284;2022-10-31T10:56:45;8.67;;;5.03;;
4311;SDS011;2169;49.086;9.284;2022-10-31T10:59:19;11.33;;;5.67;;
4311;SDS011;2169;49.086;9.284;2022-10-31T11:01:48;6.27;;;5.77;;
4311;SDS011;2169;49.086;9.284;2022-10-31T11:04:31;15.73;;;5.60;;
4311;SDS011;2169;49.086;9.284;2022-10-31T11:07:00;7.80;;;5.30;;
4311;SDS011;2169;49.086;9.284;2022-10-31T11:09:28;12.33;;;5.73;;
4311;SDS011;2169;49.086;9.284;2022-10-31T11:11:55;7.80;;;6.33;;
4311;SDS011;2169;49.086;9.284;2022-10-31T11:14:23;6.87;;;5.63;;
4311;SDS011;2169;49.086;9.284;2022-10-31T11:16:51;14.90;;;6.60;;
4311;SDS011;2169;49.086;9.284;2022-10-31T11:19:21;8.87;;;7.30;;
4311;SDS011;2169;49.086;9.284;2022-10-31T11:21:51;12.53;;;5.67;;
4311;SDS011;2169;49.086;9.284;2022-10-31T11:24:19;11.60;;;6.10;;
4311;SDS011;2169;49.086;9.284;2022-10-31T11:26:47;15.70;;;5.00;;
4311;SDS011;2169;49.086;9.284;2022-10-31T11:29:16;16.37;;;6.30;;
4311;SDS011;2169;49.086;9.284;2022-10-31T11:31:50;13.13;;;6.43;;
4311;SDS011;2169;49.086;9.284;2022-10-31T11:34:29;7.23;;;4.60;;
4311;SDS011;2169;49.086;9.284;2022-10-31T11:37:01;10.20;;;5.40;;
4311;SDS011;2169;49.086;9.284;2022-10-31T11:39:30;14.50;;;5.77;;
4311;SDS011;2169;49.086;9.284;2022-10-31T11:41:59;19.20;;;5.73;;
4311;SDS011;2169;49.086;9.284;2022-10-31T11:44:27;10.77;;;5.30;;
4311;SDS011;2169;49.086;9.284;2022-10-31T11:46:58;9.13;;;6.20;;
4311;SDS011;2169;49.086;9.284;2022-10-31T11:49:28;8.37;;;5.87;;
4311;SDS011;2169;49.086;9.284;2022-10-31T11:52:00;8.40;;;5.83;;
4311;SDS011;2169;49.086;9.284;2022-10-31T11:54:31;10.30;;;6.70;;
4311;SDS011;2169;49.086;9.284;2022-10-31T11:57:02;7.07;;;5.90;;
4311;SDS011;2169;49.086;9.284;2022-10-31T11:59:30;12.00;;;7.23;;
4311;SDS011;2169;49.086;9.284;2022-10-31T12:01:58;12.70;;;6.73;;
4311;SDS011;2169;49.086;9.284;2022-10-31T12:04:31;12.10;;;5.67;;
4311;SDS011;2169;49.086;9.284;2022-10-31T12:07:04;5.87;;;4.93;;
4311;SDS011;2169;49.086;9.284;2022-10-31T12:09:32;10.77;;;5.67;;
4311;SDS011;2169;49.086;9.284;2022-10-31T12:14:56;6.17;;;4.20;;
4311;SDS011;2169;49.086;9.284;2022-10-31T12:17:34;6.77;;;4.53;;
4311;SDS011;2169;49.086;9.284;2022-10-31T12:20:10;20.17;;;4.37;;
4311;SDS011;2169;49.086;9.284;2022-10-31T12:22:50;12.47;;;5.40;;
4311;SDS011;2169;49.086;9.284;2022-10-31T12:25:26;7.20;;;5.30;;
4311;SDS011;2169;49.086;9.284;2022-10-31T12:28:03;5.53;;;5.07;;
4311;SDS011;2169;49.086;9.284;2022-10-31T12:30:49;5.70;;;4.00;;
4311;SDS011;2169;49.086;9.284;2022-10-31T12:33:32;8.70;;;5.57;;
4311;SDS011;2169;49.086;9.284;2022-10-31T12:36:12;14.33;;;4.60;;
4311;SDS011;2169;49.086;9.284;2022-10-31T12:38:54;17.67;;;5.10;;
4311;SDS011;2169;49.086;9.284;2022-10-31T12:41:36;8.10;;;4.73;;
4311;SDS011;2169;49.086;9.284;2022-10-31T12:44:14;20.77;;;5.33;;
4311;SDS011;2169;49.086;9.284;2022-10-31T12:47:07;7.00;;;5.10;;
4311;SDS011;2169;49.086;9.284;2022-10-31T12:49:50;10.17;;;5.93;;
4311;SDS011;2169;49.086;9.284;2022-10-31T12:52:28;7.50;;;4.33;;
4311;SDS011;2169;49.086;9.284;2022-10-31T12:55:18;10.90;;;5.37;;
4311;SDS011;2169;49.086;9.284;2022-10-31T12:58:02;20.93;;;5.50;;
4311;SDS011;2169;49.086;9.284;2022-10-31T13:00:35;8.67;;;5.17;;
4311;SDS011;2169;49.086;9.284;2022-10-31T13:03:08;6.33;;;4.43;;
4311;SDS011;2169;49.086;9.284;2022-10-31T13:05:46;19.43;;;5.90;;
4311;SDS011;2169;49.086;9.284;2022-10-31T13:08:17;8.93;;;5.13;;
4311;SDS011;2169;49.086;9.284;2022-10-31T13:10:47;16.70;;;6.43;;
4311;SDS011;2169;49.086;9.284;2022-10-31T13:13:19;16.13;;;5.90;;
4311;SDS011;2169;49.086;9.284;2022-10-31T13:15:55;6.57;;;5.07;;
4311;SDS011;2169;49.086;9.284;2022-10-31T13:18:26;7.37;;;4.77;;
4311;SDS011;2169;49.086;9.284;2022-10-31T13:20:57;10.20;;;6.60;;
4311;SDS011;2169;49.086;9.284;2022-10-31T13:23:28;11.33;;;6.43;;
4311;SDS011;2169;49.086;9.284;2022-10-31T13:25:59;10.07;;;6.83;;
4311;SDS011;2169;49.086;9.284;2022-10-31T13:28:34;6.87;;;6.10;;
4311;SDS011;2169;49.086;9.284;2022-10-31T13:31:04;10.77;;;7.43;;
4311;SDS011;2169;49.086;9.284;2022-10-31T13:33:32;14.80;;;7.10;;
4311;SDS011;2169;49.086;9.284;2022-10-31T13:36:07;15.93;;;5.83;;
4311;SDS011;2169;49.086;9.284;2022-10-31T13:38:42;12.93;;;6.80;;
4311;SDS011;2169;49.086;9.284;2022-10-31T13:41:21;16.20;;;6.50;;
4311;SDS011;2169;49.086;9.284;2022-10-31T13:43:59;8.93;;;5.77;;
4311;SDS011;2169;49.086;9.284;2022-10-31T13:46:34;12.63;;;6.80;;
4311;SDS011;2169;49.086;9.284;2022-10-31T13:49:02;12.13;;;5.77;;
4311;SDS011;2169;49.086;9.284;2022-10-31T13:51:30;14.83;;;7.73;;
4311;SDS011;2169;49.086;9.284;2022-10-31T13:53:59;8.67;;;5.53;;
4311;SDS011;2169;49.086;9.284;2022-10-31T13:56:29;11.50;;;4.90;;
4311;SDS011;2169;49.086;9.284;2022-10-31T13:59:17;7.67;;;6.97;;
4311;SDS011;2169;49.086;9.284;2022-10-31T14:01:48;15.70;;;6.10;;
4311;SDS011;2169;49.086;9.284;2022-10-31T14:04:17;19.43;;;5.40;;
4311;SDS011;2169;49.086;9.284;2022-10-31T14:06:50;11.77;;;6.37;;
4311;SDS011;2169;49.086;9.284;2022-10-31T14:09:24;12.20;;;7.40;;
4311;SDS011;2169;49.086;9.284;2022-10-31T14:11:57;11.70;;;8.47;;
4311;SDS011;2169;49.086;9.284;2022-10-31T14:14:30;11.93;;;6.67;;
4311;SDS011;2169;49.086;9.284;2022-10-31T14:17:02;7.50;;;6.17;;
4311;SDS011;2169;49.086;9.284;2022-10-31T14:19:29;9.40;;;6.70;;
4311;SDS011;2169;49.086;9.284;2022-10-31T14:21:56;17.83;;;8.70;;
4311;SDS011;2169;49.086;9.284;2022-10-31T14:24:34;8.50;;;6.50;;
4311;SDS011;2169;49.086;9.284;2022-10-31T14:27:04;8.63;;;6.20;;
4311;SDS011;2169;49.086;9.284;2022-10-31T14:30:14;10.60;;;7.27;;
4311;SDS011;2169;49.086;9.284;2022-10-31T14:32:43;11.90;;;6.37;;
4311;SDS011;2169;49.086;9.284;2022-10-31T14:35:13;7.23;;;5.33;;
4311;SDS011;2169;49.086;9.284;2022-10-31T14:37:48;10.17;;;6.13;;
4311;SDS011;2169;49.086;9.284;2022-10-31T14:40:31;10.67;;;6.37;;
4311;SDS011;2169;49.086;9.284;2022-10-31T14:43:12;9.50;;;5.27;;
4311;SDS011;2169;49.086;9.284;2022-10-31T14:45:53;8.03;;;5.20;;
4311;SDS011;2169;49.086;9.284;2022-10-31T14:48:29;13.80;;;4.63;;
4311;SDS011;2169;49.086;9.284;2022-10-31T14:51:24;20.60;;;6.27;;
4311;SDS011;2169;49.086;9.284;2022-10-31T14:53:56;13.37;;;5.10;;
4311;SDS011;2169;49.086;9.284;2022-10-31T14:56:24;6.90;;;3.70;;
4311;SDS011;2169;49.086;9.284;2022-10-31T14:58:55;5.60;;;3.30;;
4311;SDS011;2169;49.086;9.284;2022-10-31T15:01:29;12.37;;;3.70;;
4311;SDS011;2169;49.086;9.284;2022-10-31T15:03:59;10.13;;;5.83;;
4311;SDS011;2169;49.086;9.284;2022-10-31T15:06:36;17.63;;;8.40;;
4311;SDS011;2169;49.086;9.284;2022-10-31T15:09:20;20.93;;;11.37;;
4311;SDS011;2169;49.086;9.284;2022-10-31T15:11:47;9.00;;;5.50;;
4311;SDS011;2169;49.086;9.284;2022-10-31T15:14:20;22.80;;;6.97;;
4311;SDS011;2169;49.086;9.284;2022-10-31T15:16:49;39.47;;;8.40;;
4311;SDS011;2169;49.086;9.284;2022-10-31T15:19:20;15.17;;;6.80;;
4311;SDS011;2169;49.086;9.284;2022-10-31T15:21:49;7.20;;;4.60;;
4311;SDS011;2169;49.086;9.284;2022-10-31T15:24:18;22.90;;;6.07;;
4311;SDS011;2169;49.086;9.284;2022-10-31T15:26:47;16.10;;;7.10;;
4311;SDS011;2169;49.086;9.284;2022-10-31T15:29:16;12.10;;;9.60;;
4311;SDS011;2169;49.086;9.284;2022-10-31T15:31:51;12.60;;;7.50;;
4311;SDS011;2169;49.086;9.284;2022-10-31T15:34:22;9.00;;;6.97;;
4311;SDS011;2169;49.086;9.284;2022-10-31T15:36:54;8.53;;;6.17;;
4311;SDS011;2169;49.086;9.284;2022-10-31T15:39:20;14.57;;;6.53;;
4311;SDS011;2169;49.086;9.284;2022-10-31T15:41:48;10.70;;;6.67;;
4311;SDS011;2169;49.086;9.284;2022-10-31T15:44:18;11.07;;;6.20;;